Johnsbury, Vermont
Current Conditions -  °F | °C
As of 4:55 AM on Friday 28 Nov 2014 (Local Time) from KCDA Reporting Station
Light Snow Light Snow  
Wind Chill: 22°   Ceiling: 1000
Heat Index: 22°   Visibility: 1.7mi
Dew Point: 19°   Wind: 0mph
Humidity: 88%   Direction: NA
Pressure: 29.98"   Gusts: NA
Location:  44.4161°N, 71.9767°W
Report Text: KCDA 280955Z AUTO 00000KT 1 3/4SM -SN BKN010 OVC015 M05/M07 A2998 RMK AO2 T10531070
Loading
Personal Weather Stations






























Interactive Weather Map New forecast layout! Learn more

10-Day Weather Forecast

Advertisements
Track Severe Weather on mobile